Time;durP1;ratioP1;P1;durP2;ratioP2;P2;SDS_P1;SDS_P2;PMS_P1;PMS_P2;Temp;Humidity;BMP_temperature;BMP_pressure;BME280_temperature;BME280_humidity;BME280_pressure;Samples;Min_cycle;Max_cycle;Signal;HPM_P1;HPM_P2
2021/08/06 00:02:23;;;;;;;3.13;2.03;;;;;;;19.93;43.02;99966.06;3576346;40;20403;-72
2021/08/06 00:04:53;;;;;;;4.53;2.05;;;;;;;19.96;43.08;99965.63;3570467;40;20123;-72
2021/08/06 00:07:23;;;;;;;3.65;1.98;;;;;;;19.94;42.92;99963.06;3566333;40;20049;-72
2021/08/06 00:09:52;;;;;;;3.60;2.10;;;;;;;19.95;42.60;99966.69;3571131;40;20037;-72
2021/08/06 00:12:20;;;;;;;3.30;1.80;;;;;;;19.92;42.51;99962.44;3576794;40;20049;-72
2021/08/06 00:14:48;;;;;;;4.10;2.13;;;;;;;19.92;42.42;99965.19;3577124;40;20384;-72
2021/08/06 00:17:16;;;;;;;3.67;1.98;;;;;;;19.91;43.01;99960.75;3576665;40;20636;-72
2021/08/06 00:19:44;;;;;;;3.28;1.88;;;;;;;19.93;42.88;99961.34;3572887;40;20038;-72
2021/08/06 00:22:13;;;;;;;3.63;2.05;;;;;;;19.94;43.08;99956.66;3559342;40;20041;-73
2021/08/06 00:24:41;;;;;;;2.95;1.85;;;;;;;19.91;42.90;99948.78;3568151;40;20037;-72
2021/08/06 00:27:09;;;;;;;3.30;1.83;;;;;;;19.90;42.54;99953.50;3570433;40;20580;-72
2021/08/06 00:29:37;;;;;;;3.20;1.90;;;;;;;19.89;42.68;99957.31;3573038;40;20256;-72
2021/08/06 00:32:05;;;;;;;2.88;1.75;;;;;;;19.89;42.96;99957.31;3572604;40;20037;-72
2021/08/06 00:34:34;;;;;;;3.58;2.10;;;;;;;19.89;43.03;99956.47;3575459;40;20047;-72
2021/08/06 00:37:03;;;;;;;3.65;1.75;;;;;;;19.87;43.05;99951.13;3574350;40;20052;-72
2021/08/06 00:39:37;;;;;;;3.45;1.92;;;;;;;19.88;42.95;99958.38;3583956;40;20681;-72
2021/08/06 00:42:08;;;;;;;2.85;1.65;;;;;;;19.83;42.76;99946.25;3575732;40;20103;-72
2021/08/06 00:44:37;;;;;;;3.85;2.25;;;;;;;19.84;43.56;99940.44;3581052;40;20033;-72
2021/08/06 00:47:07;;;;;;;2.70;1.80;;;;;;;19.84;43.44;99945.19;3565997;40;20034;-72
2021/08/06 00:49:39;;;;;;;2.88;1.95;;;;;;;19.81;43.20;99943.66;3570913;40;20036;-72
2021/08/06 00:52:11;;;;;;;3.20;1.95;;;;;;;19.80;43.51;99943.88;3575728;40;20025;-72
2021/08/06 00:54:43;;;;;;;5.60;2.08;;;;;;;19.83;42.84;99940.69;3568658;40;20139;-72
2021/08/06 00:57:16;;;;;;;3.78;2.03;;;;;;;19.82;43.60;99933.44;3574574;40;20076;-72
2021/08/06 00:59:51;;;;;;;5.18;2.25;;;;;;;19.80;43.26;99936.41;3573391;40;20065;-72
2021/08/06 01:02:25;;;;;;;4.28;2.20;;;;;;;19.81;43.18;99940.03;3575135;40;20419;-72
2021/08/06 01:05:01;;;;;;;3.80;2.00;;;;;;;19.80;43.62;99922.53;3575617;40;20029;-73
2021/08/06 01:07:39;;;;;;;3.70;2.13;;;;;;;19.77;44.05;99928.50;3576007;40;20044;-72
2021/08/06 01:10:12;;;;;;;3.67;2.20;;;;;;;19.77;44.06;99925.72;3584181;40;20608;-72
2021/08/06 01:12:54;;;;;;;4.40;2.10;;;;;;;19.75;43.96;99927.88;3574592;40;20036;-72
2021/08/06 01:15:24;;;;;;;2.72;1.83;;;;;;;19.71;43.60;99934.06;3575761;40;20076;-72
2021/08/06 01:17:57;;;;;;;3.40;1.85;;;;;;;19.71;43.78;99932.16;3574771;40;20134;-72
2021/08/06 01:20:29;;;;;;;3.78;2.05;;;;;;;19.69;44.08;99937.03;3572522;40;20041;-71
2021/08/06 01:25:50;;;;;;;3.05;1.73;;;;;;;19.67;43.97;99927.25;3572227;40;20134;-72
2021/08/06 01:28:30;;;;;;;2.88;1.80;;;;;;;19.64;44.28;99924.91;3566524;40;20048;-72
2021/08/06 01:31:02;;;;;;;3.28;2.03;;;;;;;19.61;43.49;99923.41;3581435;40;20052;-72
2021/08/06 01:33:38;;;;;;;3.20;2.05;;;;;;;19.61;43.66;99914.22;3576729;40;20037;-72
2021/08/06 01:36:07;;;;;;;4.35;2.00;;;;;;;19.60;43.55;99916.13;3575082;40;20036;-72
2021/08/06 01:38:36;;;;;;;3.42;1.90;;;;;;;19.59;44.20;99908.91;3583115;40;20041;-72
2021/08/06 01:41:16;;;;;;;3.15;1.98;;;;;;;19.61;44.87;99908.66;3583889;40;20068;-72
2021/08/06 01:44:00;;;;;;;5.63;2.20;;;;;;;19.59;44.01;99908.06;3574469;40;20058;-72
2021/08/06 01:46:34;;;;;;;2.88;1.80;;;;;;;19.56;44.49;99901.00;3574862;40;20037;-72
2021/08/06 01:49:10;;;;;;;4.70;2.10;;;;;;;19.56;44.35;99901.00;3570405;40;20048;-70
2021/08/06 01:51:43;;;;;;;4.05;2.13;;;;;;;19.54;43.85;99911.44;3583368;40;20045;-72
2021/08/06 01:54:14;;;;;;;3.90;2.13;;;;;;;19.52;44.24;99908.03;3583333;40;20048;-72
2021/08/06 01:56:45;;;;;;;3.22;1.92;;;;;;;19.52;44.19;99908.88;3583550;40;20082;-72
2021/08/06 01:59:15;;;;;;;3.13;2.05;;;;;;;19.52;44.35;99896.94;3574609;40;20060;-72
2021/08/06 02:01:49;;;;;;;3.35;2.10;;;;;;;19.50;44.07;99893.50;3575294;40;20518;-72
2021/08/06 02:04:19;;;;;;;4.50;2.25;;;;;;;19.49;44.48;99889.03;3583333;40;20045;-72
2021/08/06 02:06:57;;;;;;;3.92;2.22;;;;;;;19.47;44.64;99892.00;3570990;40;20045;-72
2021/08/06 02:09:28;;;;;;;5.82;2.10;;;;;;;19.46;44.39;99890.31;3583641;40;20025;-72
2021/08/06 02:11:58;;;;;;;3.20;1.90;;;;;;;19.49;44.69;99889.03;3574388;40;22119;-72
2021/08/06 02:14:43;;;;;;;3.50;2.13;;;;;;;19.45;44.65;99890.50;3574687;40;20307;-72
2021/08/06 02:17:14;;;;;;;3.20;1.95;;;;;;;19.47;44.26;99888.38;3580866;40;20025;-72
2021/08/06 02:19:44;;;;;;;3.45;2.15;;;;;;;19.46;44.54;99895.84;3573575;40;20375;-72
2021/08/06 02:22:16;;;;;;;3.42;2.20;;;;;;;19.47;44.67;99899.47;3571423;40;20048;-72
2021/08/06 02:24:51;;;;;;;3.20;2.10;;;;;;;19.45;44.41;99893.28;3575536;40;20039;-72
2021/08/06 02:27:26;;;;;;;3.15;1.92;;;;;;;19.48;44.70;99895.63;3580024;40;20591;-73
2021/08/06 02:29:59;;;;;;;4.43;2.30;;;;;;;19.47;44.98;99893.94;3584982;40;20048;-72
2021/08/06 02:32:30;;;;;;;3.80;2.10;;;;;;;19.46;44.29;99889.44;3583790;40;20049;-72
2021/08/06 02:35:01;;;;;;;3.60;1.92;;;;;;;19.46;44.48;99886.66;3576386;40;20037;-72
2021/08/06 02:37:30;;;;;;;3.90;2.00;;;;;;;19.47;44.45;99882.84;3574527;40;20376;-72
2021/08/06 02:39:58;;;;;;;3.95;1.98;;;;;;;19.47;44.65;99891.16;3577846;40;20036;-72
2021/08/06 02:42:27;;;;;;;3.65;2.05;;;;;;;19.48;44.84;99892.88;3576368;40;20041;-72
2021/08/06 02:44:55;;;;;;;3.60;2.13;;;;;;;19.47;45.00;99885.59;3577568;40;20036;-72
2021/08/06 02:47:23;;;;;;;4.15;2.20;;;;;;;19.47;45.19;99894.78;3575153;40;20053;-72
2021/08/06 02:49:51;;;;;;;4.03;2.15;;;;;;;19.48;45.12;99890.09;3577282;40;20267;-73
2021/08/06 02:52:20;;;;;;;3.55;2.00;;;;;;;19.48;44.50;99881.78;3565657;40;20065;-72
2021/08/06 02:54:48;;;;;;;4.13;2.10;;;;;;;19.48;44.94;99887.31;3551614;40;20819;-73
2021/08/06 02:57:17;;;;;;;3.85;1.73;;;;;;;19.48;44.65;99885.41;3556152;40;20061;-72
2021/08/06 02:59:48;;;;;;;2.83;1.75;;;;;;;19.50;45.08;99885.19;3556987;40;20033;-72
2021/08/06 03:02:16;;;;;;;3.97;2.10;;;;;;;19.47;44.77;99889.25;3556968;40;20063;-73
2021/08/06 03:04:44;;;;;;;3.10;1.70;;;;;;;19.48;44.89;99884.53;3557431;40;20033;-73
2021/08/06 03:07:17;;;;;;;3.58;2.05;;;;;;;19.48;44.69;99884.53;3556774;40;20061;-72
2021/08/06 03:09:46;;;;;;;2.63;1.80;;;;;;;19.47;44.55;99877.28;3557195;40;20395;-72
2021/08/06 03:12:16;;;;;;;3.08;1.70;;;;;;;19.45;45.14;99880.25;3556745;40;20064;-71
2021/08/06 03:14:44;;;;;;;3.45;1.70;;;;;;;19.46;45.23;99873.66;3556946;40;20119;-72
2021/08/06 03:17:15;;;;;;;2.80;1.70;;;;;;;19.47;44.76;99868.97;3556373;40;20030;-72
2021/08/06 03:19:45;;;;;;;3.58;1.63;;;;;;;19.42;44.92;99869.63;3557719;40;20037;-73
2021/08/06 03:22:14;;;;;;;2.83;1.65;;;;;;;19.44;44.67;99872.16;3556883;40;20660;-73
2021/08/06 03:24:42;;;;;;;2.78;1.65;;;;;;;19.42;44.97;99863.22;3556995;40;20662;-73
2021/08/06 03:27:11;;;;;;;2.88;1.67;;;;;;;19.41;45.16;99864.28;3556568;40;20065;-72
2021/08/06 03:29:39;;;;;;;3.13;1.90;;;;;;;19.40;45.38;99859.81;3563144;40;20037;-72
2021/08/06 03:32:07;;;;;;;3.90;1.70;;;;;;;19.39;45.40;99858.94;3584456;40;20052;-73
2021/08/06 03:34:40;;;;;;;2.75;1.75;;;;;;;19.40;45.23;99860.66;3576484;40;20037;-72
2021/08/06 03:37:08;;;;;;;2.95;1.65;;;;;;;19.37;44.93;99857.44;3584038;40;20394;-72
2021/08/06 03:39:37;;;;;;;3.00;1.67;;;;;;;19.37;45.46;99860.22;3584953;40;20106;-72
2021/08/06 03:42:06;;;;;;;3.38;2.03;;;;;;;19.37;45.44;99855.53;3575494;40;20241;-73
2021/08/06 03:44:35;;;;;;;3.08;1.63;;;;;;;19.36;45.77;99848.28;3584603;40;20574;-72
2021/08/06 03:47:04;;;;;;;4.18;1.80;;;;;;;19.36;46.01;99848.28;3575750;40;20044;-72
2021/08/06 03:49:32;;;;;;;3.60;1.50;;;;;;;19.33;45.51;99845.09;3576102;40;20095;-72
2021/08/06 03:52:03;;;;;;;2.88;1.63;;;;;;;19.33;45.99;99843.16;3575373;40;20434;-71
2021/08/06 03:54:31;;;;;;;3.33;1.40;;;;;;;19.29;45.70;99835.47;3575871;40;20052;-72
2021/08/06 03:56:59;;;;;;;2.95;1.70;;;;;;;19.27;46.15;99835.69;3583473;40;20312;-72
2021/08/06 03:59:27;;;;;;;2.63;1.60;;;;;;;19.25;45.85;99837.84;3576338;40;20037;-72
2021/08/06 04:01:57;;;;;;;3.15;1.73;;;;;;;19.24;46.17;99843.59;3570020;40;20138;-71
2021/08/06 04:04:25;;;;;;;3.40;1.73;;;;;;;19.22;45.74;99849.34;3580666;40;20086;-72
2021/08/06 04:06:53;;;;;;;3.15;1.60;;;;;;;19.19;46.26;99845.06;3578409;40;20083;-72
2021/08/06 04:09:23;;;;;;;4.03;1.77;;;;;;;19.22;46.28;99840.19;3574525;40;20037;-72
2021/08/06 04:11:51;;;;;;;2.70;1.83;;;;;;;19.17;46.28;99846.38;3574776;40;20053;-72
2021/08/06 04:14:19;;;;;;;3.90;2.00;;;;;;;19.15;46.34;99848.50;3574374;40;20049;-71
2021/08/06 04:16:48;;;;;;;3.35;2.00;;;;;;;19.12;45.99;99841.44;3575318;40;20412;-72
2021/08/06 04:19:16;;;;;;;4.03;2.05;;;;;;;19.10;46.06;99851.88;3573633;40;20051;-71
2021/08/06 04:21:44;;;;;;;3.75;1.70;;;;;;;19.08;46.04;99845.72;3574720;40;20068;-71
2021/08/06 04:24:12;;;;;;;3.47;2.10;;;;;;;19.06;46.54;99839.53;3579856;40;20041;-71
2021/08/06 04:26:42;;;;;;;3.10;1.95;;;;;;;19.07;46.75;99846.78;3574667;40;20029;-71
2021/08/06 04:29:09;;;;;;;4.35;1.92;;;;;;;19.03;46.68;99845.50;3580109;40;20044;-72
2021/08/06 04:31:37;;;;;;;4.38;2.20;;;;;;;19.03;46.45;99850.19;3571720;40;20073;-72
2021/08/06 04:34:06;;;;;;;4.13;2.20;;;;;;;19.02;46.58;99845.72;3575568;40;20048;-71
2021/08/06 04:36:34;;;;;;;2.90;1.83;;;;;;;18.99;46.25;99835.91;3571143;40;20033;-71
2021/08/06 04:39:02;;;;;;;4.05;2.03;;;;;;;18.98;46.77;99847.22;3574667;40;20037;-72
2021/08/06 04:41:30;;;;;;;3.97;2.33;;;;;;;18.96;46.61;99847.41;3575810;40;20065;-71
2021/08/06 04:43:59;;;;;;;3.28;2.10;;;;;;;18.97;46.59;99854.66;3573939;40;20048;-72
2021/08/06 04:46:27;;;;;;;3.80;1.90;;;;;;;18.94;46.83;99846.75;3577550;40;20059;-72
2021/08/06 04:48:55;;;;;;;4.82;2.15;;;;;;;18.95;46.87;99842.94;3574284;40;20041;-72
2021/08/06 04:51:23;;;;;;;4.80;1.95;;;;;;;18.93;46.38;99842.31;3573123;40;20033;-72
2021/08/06 04:53:51;;;;;;;3.78;2.10;;;;;;;18.92;46.89;99839.75;3580776;40;20037;-71
2021/08/06 04:56:19;;;;;;;3.78;2.00;;;;;;;18.91;46.65;99841.66;3573706;40;20054;-71
2021/08/06 04:58:47;;;;;;;3.10;1.92;;;;;;;18.90;46.51;99848.28;3582920;40;20055;-71
2021/08/06 05:01:17;;;;;;;3.58;1.77;;;;;;;18.91;46.87;99843.56;3577532;40;20354;-71
2021/08/06 05:03:46;;;;;;;3.47;1.90;;;;;;;18.89;46.89;99849.31;3565269;40;20079;-72
2021/08/06 05:06:14;;;;;;;3.78;2.15;;;;;;;18.88;47.10;99846.75;3568660;40;20431;-72
2021/08/06 05:08:46;;;;;;;2.78;1.80;;;;;;;18.88;46.85;99844.84;3571125;40;20052;-72
2021/08/06 05:11:14;;;;;;;3.67;2.20;;;;;;;18.86;46.89;99838.66;3570306;40;20041;-72
2021/08/06 05:13:42;;;;;;;3.15;1.85;;;;;;;18.85;46.80;99839.75;3579738;40;20057;-72
2021/08/06 05:16:10;;;;;;;3.05;1.90;;;;;;;18.84;47.45;99838.03;3583499;40;20037;-72
2021/08/06 05:18:39;;;;;;;3.15;1.90;;;;;;;18.86;47.17;99840.56;3575059;40;20068;-71
2021/08/06 05:21:09;;;;;;;3.13;1.83;;;;;;;18.83;47.53;99838.25;3579626;40;20126;-71
2021/08/06 05:23:39;;;;;;;3.42;2.03;;;;;;;18.81;46.98;99838.44;3583629;40;20048;-71
2021/08/06 05:26:07;;;;;;;2.60;1.83;;;;;;;18.79;47.05;99838.66;3575375;40;20119;-72
2021/08/06 05:28:35;;;;;;;3.55;2.40;;;;;;;18.80;47.18;99833.97;3574781;40;20411;-72
2021/08/06 05:31:03;;;;;;;3.00;2.03;;;;;;;18.80;47.51;99833.97;3575824;40;20052;-71
2021/08/06 05:33:33;;;;;;;4.13;1.88;;;;;;;18.79;47.45;99841.41;3574657;40;20052;-71
2021/08/06 05:36:03;;;;;;;3.10;1.60;;;;;;;18.83;47.57;99846.56;3575999;40;20134;-71
2021/08/06 05:38:33;;;;;;;3.83;2.00;;;;;;;18.79;47.59;99843.34;3583521;40;20165;-72
2021/08/06 05:41:02;;;;;;;2.85;2.10;;;;;;;18.80;47.52;99851.44;3583779;40;20078;-73
2021/08/06 05:43:30;;;;;;;3.05;1.83;;;;;;;18.82;47.57;99854.00;3574633;40;20056;-73
2021/08/06 05:45:58;;;;;;;2.90;1.90;;;;;;;18.84;47.58;99856.56;3574159;40;20040;-72
2021/08/06 05:48:30;;;;;;;4.13;2.10;;;;;;;18.81;47.74;99847.63;3565282;40;20045;-73
2021/08/06 05:50:58;;;;;;;4.72;2.08;;;;;;;18.84;47.78;99843.56;3574150;40;20034;-72
2021/08/06 05:53:27;;;;;;;3.22;1.90;;;;;;;18.89;47.49;99848.47;3565013;40;20049;-73
2021/08/06 05:55:59;;;;;;;3.22;1.77;;;;;;;18.87;47.76;99856.13;3565434;40;20057;-73
2021/08/06 05:58:32;;;;;;;2.90;1.75;;;;;;;18.88;47.63;99855.94;3574784;40;20033;-73
2021/08/06 06:01:01;;;;;;;3.20;1.70;;;;;;;18.90;47.15;99853.81;3566422;40;20386;-73
2021/08/06 06:03:37;;;;;;;3.25;1.90;;;;;;;18.91;47.58;99860.22;3558730;40;22131;-73
2021/08/06 06:06:14;;;;;;;3.53;1.50;;;;;;;18.93;47.29;99858.09;3563782;40;20034;-72
2021/08/06 06:08:43;;;;;;;3.10;1.80;;;;;;;18.96;47.47;99864.03;3582912;40;20052;-72
2021/08/06 06:11:11;;;;;;;3.30;1.70;;;;;;;18.95;47.80;99864.25;3560641;40;20483;-71
2021/08/06 06:13:40;;;;;;;3.50;1.98;;;;;;;18.96;47.52;99866.81;3557213;40;20044;-72
2021/08/06 06:16:08;;;;;;;2.90;1.60;;;;;;;18.97;47.46;99871.28;3565820;40;20030;-72
2021/08/06 06:18:36;;;;;;;2.70;1.60;;;;;;;18.98;47.39;99873.00;3557425;40;20439;-72
2021/08/06 06:21:06;;;;;;;2.83;1.60;;;;;;;19.01;47.80;99874.50;3558175;40;20045;-72
2021/08/06 06:23:34;;;;;;;2.83;1.60;;;;;;;19.01;47.98;99874.50;3557388;40;20081;-72
2021/08/06 06:26:07;;;;;;;3.97;1.73;;;;;;;19.03;47.54;99872.34;3557386;40;20029;-73
2021/08/06 06:28:35;;;;;;;2.78;1.55;;;;;;;19.03;47.90;99877.91;3556872;40;20045;-73
2021/08/06 06:31:03;;;;;;;3.42;1.75;;;;;;;19.02;48.24;99874.28;3565752;40;20041;-72
2021/08/06 06:33:32;;;;;;;2.58;1.50;;;;;;;19.05;47.42;99876.63;3565303;40;20443;-73
2021/08/06 06:36:00;;;;;;;2.60;1.63;;;;;;;19.06;48.11;99878.34;3566355;40;20033;-73
2021/08/06 06:38:28;;;;;;;4.18;1.48;;;;;;;19.07;48.13;99884.75;3557161;40;20455;-72
2021/08/06 06:40:57;;;;;;;3.72;1.60;;;;;;;19.07;47.74;99880.06;3559025;40;20034;-73
2021/08/06 06:43:31;;;;;;;3.03;1.40;;;;;;;19.09;47.91;99885.41;3554236;40;20088;-73
2021/08/06 06:46:00;;;;;;;2.72;1.45;;;;;;;19.11;48.02;99886.00;3576058;40;20115;-73
2021/08/06 06:48:29;;;;;;;2.83;1.67;;;;;;;19.12;47.61;99882.19;3573914;40;20033;-73
2021/08/06 06:50:58;;;;;;;3.55;1.63;;;;;;;19.13;48.19;99878.34;3572301;40;20029;-74
2021/08/06 06:53:29;;;;;;;1.83;1.30;;;;;;;19.13;48.21;99884.75;3566970;40;20037;-73
2021/08/06 06:55:58;;;;;;;2.67;1.63;;;;;;;19.13;48.36;99890.28;3575878;40;20032;-73
2021/08/06 06:58:26;;;;;;;2.22;1.42;;;;;;;19.15;48.13;99892.84;3566622;40;20040;-73
2021/08/06 07:00:56;;;;;;;3.30;1.80;;;;;;;19.18;48.39;99892.44;3567305;40;20037;-73
2021/08/06 07:03:25;;;;;;;2.20;1.40;;;;;;;19.18;48.16;99892.44;3566849;40;20040;-72
2021/08/06 07:05:53;;;;;;;3.13;1.70;;;;;;;19.19;48.32;99894.13;3566452;40;20033;-72
2021/08/06 07:08:23;;;;;;;2.88;1.67;;;;;;;19.21;47.65;99892.00;3569492;40;20470;-73
2021/08/06 07:10:52;;;;;;;3.88;1.60;;;;;;;19.22;47.95;99898.41;3585386;40;20388;-73
2021/08/06 07:13:20;;;;;;;3.28;1.85;;;;;;;19.23;47.90;99905.66;3576850;40;20124;-71
2021/08/06 07:15:49;;;;;;;3.22;1.63;;;;;;;19.24;47.93;99897.13;3577227;40;20293;-72
2021/08/06 07:18:18;;;;;;;3.28;1.52;;;;;;;19.27;48.03;99899.47;3576808;40;20102;-72
2021/08/06 07:20:46;;;;;;;3.35;1.80;;;;;;;19.26;48.42;99903.31;3578946;40;20029;-70
2021/08/06 07:23:15;;;;;;;2.25;1.55;;;;;;;19.26;48.28;99899.69;3570820;40;20121;-70
2021/08/06 07:25:43;;;;;;;2.80;1.48;;;;;;;19.27;47.92;99901.38;3577317;40;20032;-70
2021/08/06 07:28:12;;;;;;;2.78;1.50;;;;;;;19.28;48.32;99903.09;3574398;40;20161;-70
2021/08/06 07:30:41;;;;;;;2.55;1.40;;;;;;;19.28;48.55;99903.94;3574976;40;20523;-70
2021/08/06 07:33:09;;;;;;;3.25;1.52;;;;;;;19.29;48.06;99904.78;3583526;40;20111;-68
2021/08/06 07:35:38;;;;;;;2.80;1.48;;;;;;;19.33;48.51;99908.88;3584683;40;20036;-69
2021/08/06 07:38:06;;;;;;;3.28;1.38;;;;;;;19.30;48.49;99912.91;3573946;40;20134;-68
2021/08/06 07:40:36;;;;;;;2.78;1.65;;;;;;;19.31;48.59;99911.00;3580920;40;20056;-66
2021/08/06 07:43:04;;;;;;;2.80;1.50;;;;;;;19.32;47.97;99908.00;3567795;40;20037;-69
2021/08/06 07:45:32;;;;;;;2.70;1.50;;;;;;;19.33;48.55;99909.72;3578931;40;20057;-68
2021/08/06 07:48:01;;;;;;;2.22;1.38;;;;;;;19.36;48.32;99911.19;3576000;40;20045;-69
2021/08/06 07:50:30;;;;;;;2.78;1.33;;;;;;;19.38;48.48;99911.84;3574155;40;20036;-67
2021/08/06 07:53:00;;;;;;;2.40;1.20;;;;;;;19.40;48.84;99918.91;3583066;40;20611;-69
2021/08/06 07:55:28;;;;;;;1.95;1.27;;;;;;;19.42;48.52;99913.16;3580694;40;20459;-68
2021/08/06 07:57:56;;;;;;;2.03;1.10;;;;;;;19.44;49.28;99906.28;3575804;40;20044;-67
2021/08/06 08:00:24;;;;;;;3.22;1.33;;;;;;;19.48;49.27;99904.81;3581530;40;20080;-64
2021/08/06 08:02:54;;;;;;;3.10;1.40;;;;;;;19.54;49.90;99909.53;3569746;40;20122;-65
2021/08/06 08:05:26;;;;;;;2.08;1.20;;;;;;;19.58;49.42;99906.34;3578427;40;20162;-65
2021/08/06 08:08:02;;;;;;;2.90;1.40;;;;;;;19.70;49.76;99910.16;3580390;40;20049;-66
2021/08/06 08:10:31;;;;;;;3.38;1.30;;;;;;;19.78;49.83;99918.25;3581740;40;20068;-67
2021/08/06 08:13:12;;;;;;;3.40;1.20;;;;;;;19.86;49.43;99916.13;3580521;40;20325;-64
2021/08/06 08:15:43;;;;;;;3.50;1.30;;;;;;;19.97;49.14;99917.38;3572635;40;20107;-63
2021/08/06 08:18:11;;;;;;;3.45;1.38;;;;;;;20.07;49.54;99926.13;3574682;40;20399;-64
2021/08/06 08:20:39;;;;;;;3.30;1.45;;;;;;;20.14;49.17;99926.09;3575091;40;20045;-67
2021/08/06 08:23:10;;;;;;;1.70;1.00;;;;;;;20.23;48.80;99933.16;3570395;40;20057;-66
2021/08/06 08:25:38;;;;;;;2.47;1.35;;;;;;;20.26;48.04;99941.91;3572092;40;20092;-67
2021/08/06 08:28:12;;;;;;;1.80;1.02;;;;;;;20.33;47.76;99958.56;3573117;40;20045;-67
2021/08/06 08:30:41;;;;;;;2.05;0.80;;;;;;;20.37;47.47;99958.97;3574018;40;20061;-68
2021/08/06 08:33:14;;;;;;;1.70;0.90;;;;;;;20.40;47.01;99952.97;3572258;40;20336;-68
2021/08/06 08:35:44;;;;;;;1.75;0.80;;;;;;;20.37;46.68;99959.81;3574139;40;20321;-68
2021/08/06 08:38:17;;;;;;;;;;;;;;;20.11;47.39;99970.94;3573657;40;20406;-69
2021/08/06 08:40:47;;;;;;;1.75;0.75;;;;;;;20.35;46.78;99969.44;3582474;40;19969;-69
2021/08/06 08:43:17;;;;;;;1.55;0.70;;;;;;;20.35;46.26;99967.50;3575169;40;20044;-69
2021/08/06 08:45:48;;;;;;;2.13;0.90;;;;;;;20.35;46.23;99972.22;3575740;40;20056;-70
2021/08/06 08:48:19;;;;;;;1.90;0.80;;;;;;;20.28;46.08;99973.09;3562095;40;20037;-69
2021/08/06 08:50:49;;;;;;;1.88;0.88;;;;;;;20.24;46.25;99974.59;3574896;40;20053;-69
2021/08/06 08:53:19;;;;;;;1.90;0.90;;;;;;;20.21;46.06;99975.03;3574039;40;20404;-69
2021/08/06 08:55:47;;;;;;;2.05;1.10;;;;;;;20.15;45.83;99975.00;3583055;40;20401;-72
2021/08/06 08:58:15;;;;;;;1.15;0.80;;;;;;;20.13;46.47;99974.38;3572264;40;20124;-65
2021/08/06 09:00:44;;;;;;;1.17;0.73;;;;;;;20.08;45.96;99974.19;3573514;40;20049;-65
2021/08/06 09:03:36;;;;;;;2.38;1.30;;;;;;;20.05;46.76;99980.16;3573006;40;20372;-63
2021/08/06 09:06:09;;;;;;;3.03;1.10;;;;;;;20.01;46.39;99987.22;3573553;40;20297;-64
2021/08/06 09:08:40;;;;;;;2.25;1.10;;;;;;;19.97;46.62;99981.22;3573071;40;20447;-65
2021/08/06 09:11:34;;;;;;;2.33;1.30;;;;;;;19.91;46.53;99977.41;3573740;40;20049;-63
2021/08/06 09:14:24;;;;;;;2.53;0.90;;;;;;;19.91;46.77;99979.31;3573424;40;20465;-64
2021/08/06 09:16:57;;;;;;;1.65;0.88;;;;;;;19.91;47.14;99982.94;3572893;40;20049;-62
2021/08/06 09:19:26;;;;;;;2.70;1.00;;;;;;;19.88;46.92;99975.03;3571021;40;20041;-63
2021/08/06 09:22:18;;;;;;;2.28;0.95;;;;;;;19.88;46.83;99972.28;3573220;40;20037;-64
2021/08/06 09:25:10;;;;;;;2.13;1.20;;;;;;;19.84;46.89;99972.94;3571976;40;20041;-63
2021/08/06 09:27:41;;;;;;;2.00;1.27;;;;;;;19.84;47.30;99975.69;3583352;40;20033;-63
2021/08/06 09:30:12;;;;;;;1.58;1.00;;;;;;;19.85;47.49;99982.94;3573127;40;20080;-64
2021/08/06 09:32:49;;;;;;;1.77;1.23;;;;;;;19.87;47.34;99983.56;3573377;40;20037;-63
2021/08/06 09:35:19;;;;;;;2.03;1.08;;;;;;;19.85;46.99;99974.59;3575370;40;20033;-63
2021/08/06 09:37:48;;;;;;;2.92;1.20;;;;;;;19.85;47.13;99971.84;3574500;40;20130;-63
2021/08/06 09:40:21;;;;;;;2.95;1.05;;;;;;;19.87;47.04;99975.25;3574054;40;20135;-63
2021/08/06 09:42:55;;;;;;;2.00;1.10;;;;;;;19.89;47.70;99968.44;3572101;40;20041;-65
2021/08/06 09:45:25;;;;;;;1.58;1.00;;;;;;;19.87;47.52;99967.78;3572107;40;20323;-65
2021/08/06 09:47:57;;;;;;;2.72;1.08;;;;;;;19.90;47.54;99952.63;3573012;40;20049;-63
2021/08/06 09:50:33;;;;;;;2.22;1.05;;;;;;;19.90;47.15;99953.50;3570919;40;20048;-63
2021/08/06 09:53:01;;;;;;;2.22;1.30;;;;;;;19.91;47.57;99948.78;3574128;40;20045;-63
2021/08/06 09:55:33;;;;;;;2.47;1.10;;;;;;;19.95;47.53;99956.47;3574996;40;20037;-62
2021/08/06 09:58:03;;;;;;;1.63;1.00;;;;;;;19.95;47.39;99961.16;3575240;40;20025;-63
2021/08/06 10:00:33;;;;;;;1.60;1.00;;;;;;;19.98;47.40;99965.44;3575332;40;20275;-64
2021/08/06 10:03:02;;;;;;;2.90;1.13;;;;;;;20.01;47.32;99967.78;3573110;40;20041;-61
2021/08/06 10:05:32;;;;;;;2.17;1.02;;;;;;;20.05;47.90;99966.28;3575704;40;20138;-62
2021/08/06 10:08:02;;;;;;;2.25;1.13;;;;;;;20.09;47.63;99967.56;3570939;40;20049;-62
2021/08/06 10:10:35;;;;;;;4.32;1.50;;;;;;;20.13;47.69;99969.69;3575346;40;20068;-62
2021/08/06 10:13:05;;;;;;;2.80;1.15;;;;;;;20.17;47.81;99967.34;3571753;40;20389;-62
2021/08/06 10:15:35;;;;;;;4.53;1.33;;;;;;;20.16;47.81;99963.69;3579705;40;20042;-63
2021/08/06 10:18:03;;;;;;;2.63;1.20;;;;;;;20.23;47.72;99974.81;3574333;40;20389;-63
2021/08/06 10:20:33;;;;;;;2.53;1.20;;;;;;;20.27;47.49;99970.53;3567791;40;20045;-63
2021/08/06 10:23:01;;;;;;;1.98;1.20;;;;;;;20.31;47.71;99975.44;3566207;40;20049;-63
2021/08/06 10:25:33;;;;;;;2.60;1.30;;;;;;;20.39;47.52;99970.72;3576696;40;20068;-63
2021/08/06 10:28:04;;;;;;;2.47;1.40;;;;;;;20.42;47.44;99970.28;3570677;40;20395;-64
2021/08/06 10:30:35;;;;;;;3.47;1.60;;;;;;;20.46;47.74;99963.22;3568281;40;20163;-64
2021/08/06 10:33:12;;;;;;;2.40;1.40;;;;;;;20.55;47.66;99962.75;3574011;40;20294;-63
2021/08/06 10:35:46;;;;;;;2.17;1.20;;;;;;;20.60;47.46;99957.38;3573555;40;20514;-63
2021/08/06 10:38:15;;;;;;;3.05;1.27;;;;;;;20.64;47.22;99957.81;3575954;40;20041;-64
2021/08/06 10:41:13;;;;;;;2.05;1.20;;;;;;;20.70;47.09;99954.13;3575136;40;20107;-64
2021/08/06 10:44:04;;;;;;;2.63;1.48;;;;;;;20.75;46.59;99965.44;3574121;40;20053;-61
2021/08/06 10:46:58;;;;;;;2.08;1.30;;;;;;;20.80;46.67;99965.66;3570139;40;20055;-64
2021/08/06 10:49:28;;;;;;;2.42;1.30;;;;;;;20.83;46.41;99961.56;3573466;40;20037;-64
2021/08/06 10:52:17;;;;;;;2.75;1.30;;;;;;;20.88;45.77;99982.06;3574269;40;20384;-63
2021/08/06 10:54:47;;;;;;;3.17;1.40;;;;;;;20.89;45.93;99986.59;3572656;40;20049;-69
2021/08/06 10:57:29;;;;;;;2.50;1.02;;;;;;;20.95;45.23;99988.47;3576287;40;20029;-68
2021/08/06 11:00:00;;;;;;;1.58;0.80;;;;;;;20.89;44.99;99994.06;3577595;40;20504;-71
2021/08/06 11:02:48;;;;;;;2.08;0.80;;;;;;;20.86;44.74;99997.25;3571352;40;20428;-70
2021/08/06 11:05:41;;;;;;;2.47;0.80;;;;;;;20.82;44.31;99998.78;3576899;40;20029;-70
2021/08/06 11:08:55;;;;;;;2.10;0.97;;;;;;;20.74;44.18;99996.25;3584427;40;20139;-68
2021/08/06 11:11:48;;;;;;;1.92;0.90;;;;;;;20.63;44.58;99987.53;3576673;40;20041;-71
2021/08/06 11:14:34;;;;;;;1.98;0.90;;;;;;;20.63;44.48;99990.31;3567285;40;20030;-71
2021/08/06 11:17:08;;;;;;;2.03;0.90;;;;;;;20.59;44.37;99986.22;3567171;40;20289;-68
2021/08/06 11:19:38;;;;;;;1.98;1.00;;;;;;;20.54;44.42;99971.31;3573654;40;20069;-70
2021/08/06 11:22:09;;;;;;;3.08;1.00;;;;;;;20.52;44.71;99985.41;3577002;40;20037;-68
2021/08/06 11:24:40;;;;;;;1.48;0.93;;;;;;;20.49;44.85;99979.44;3577245;40;20385;-71
2021/08/06 11:27:09;;;;;;;2.08;0.80;;;;;;;20.45;45.11;99983.72;3574987;40;20070;-71
2021/08/06 11:29:40;;;;;;;2.58;1.20;;;;;;;20.44;45.09;99988.44;3572745;40;20029;-67
2021/08/06 11:32:09;;;;;;;1.70;1.00;;;;;;;20.42;45.07;99973.06;3576862;40;20037;-71
2021/08/06 11:35:00;;;;;;;2.42;1.10;;;;;;;20.39;44.58;99977.13;3577271;40;20129;-69
2021/08/06 11:37:45;;;;;;;1.83;0.98;;;;;;;20.38;45.15;99989.31;3575056;40;20056;-68
2021/08/06 11:40:15;;;;;;;2.50;1.10;;;;;;;20.40;44.82;99987.16;3577067;40;20043;-70
2021/08/06 11:42:46;;;;;;;2.90;1.10;;;;;;;20.41;45.29;99986.09;3576526;40;20037;-70
2021/08/06 11:45:18;;;;;;;1.85;0.90;;;;;;;20.43;45.48;99983.94;3576617;40;20029;-70
2021/08/06 11:47:49;;;;;;;2.88;1.20;;;;;;;20.47;45.11;99979.66;3577765;40;20033;-70
2021/08/06 11:50:19;;;;;;;4.55;1.50;;;;;;;20.50;45.07;99987.53;3577265;40;20033;-70
2021/08/06 11:52:49;;;;;;;2.78;1.30;;;;;;;20.54;44.82;99986.06;3576669;40;20138;-70
2021/08/06 11:55:20;;;;;;;2.05;1.10;;;;;;;20.56;44.83;99983.91;3577121;40;20037;-71
2021/08/06 11:57:53;;;;;;;2.30;1.15;;;;;;;20.61;44.47;99986.88;3576293;40;20087;-70